SWR2340 LSGG-LEIB
Flight info
| Callsign | SWR2340 |
|---|---|
| Flight time | 1h 24m |
| Altitude | 35000 |
| Route | BALSI DCT RETNO DCT TUPOX DCT MTG DCT DIVKO DCT VATIR N852 PIVUS DCT SULID DCT DIMIB DCT POS |
| Aircraft | A321/M-SDE3FGHIRWY/LB1 |
Departure
| Time | 2026-05-05 21:50 |
|---|---|
| Airport | Geneva International Airport (LSGG) |
Arrival
| Time | 2026-05-05 23:14 |
|---|---|
| Airport | Ibiza Airport (LEIB) |
| Time | Latitude | Longitude | Altitude | Speed | Heading |
|---|---|---|---|---|---|
| 2026-05-05 21:20 | 46.23057 | 6.10610 | 1402 ft | 0 kts | 136° |
| 2026-05-05 21:38 | 46.23070 | 6.10590 | 1407 ft | 4 kts | 125° |
| 2026-05-05 21:38 | 46.23081 | 6.10557 | 1407 ft | 4 kts | 92° |
| 2026-05-05 21:38 | 46.23075 | 6.10526 | 1396 ft | 2 kts | 46° |
| 2026-05-05 21:39 | 46.23075 | 6.10525 | 1396 ft | 0 kts | 45° |
| 2026-05-05 21:41 | 46.23094 | 6.10553 | 1402 ft | 7 kts | 46° |
| 2026-05-05 21:41 | 46.23127 | 6.10603 | 1397 ft | 7 kts | 45° |
| 2026-05-05 21:41 | 46.23177 | 6.10675 | 1398 ft | 11 kts | 45° |
| 2026-05-05 21:42 | 46.23233 | 6.10758 | 1396 ft | 12 kts | 43° |
| 2026-05-05 21:42 | 46.23307 | 6.10797 | 1397 ft | 10 kts | 16° |
| 2026-05-05 21:42 | 46.23365 | 6.10860 | 1404 ft | 11 kts | 44° |
| 2026-05-05 21:42 | 46.23421 | 6.10942 | 1393 ft | 12 kts | 46° |
| 2026-05-05 21:43 | 46.23481 | 6.11029 | 1401 ft | 13 kts | 44° |
| 2026-05-05 21:43 | 46.23532 | 6.11101 | 1396 ft | 6 kts | 46° |
| 2026-05-05 21:43 | 46.23563 | 6.11150 | 1398 ft | 7 kts | 45° |
| 2026-05-05 21:43 | 46.23610 | 6.11150 | 1396 ft | 8 kts | 329° |
| 2026-05-05 21:44 | 46.23654 | 6.11090 | 1394 ft | 10 kts | 315° |
| 2026-05-05 21:44 | 46.23705 | 6.11082 | 1388 ft | 11 kts | 36° |
| 2026-05-05 21:44 | 46.23772 | 6.11179 | 1377 ft | 14 kts | 46° |
| 2026-05-05 21:44 | 46.23846 | 6.11288 | 1375 ft | 16 kts | 45° |
| 2026-05-05 21:45 | 46.23928 | 6.11408 | 1373 ft | 18 kts | 45° |
| 2026-05-05 21:45 | 46.24017 | 6.11537 | 1371 ft | 18 kts | 43° |
| 2026-05-05 21:45 | 46.24113 | 6.11680 | 1367 ft | 19 kts | 49° |
| 2026-05-05 21:45 | 46.24200 | 6.11810 | 1363 ft | 18 kts | 47° |
| 2026-05-05 21:46 | 46.24271 | 6.11923 | 1362 ft | 7 kts | 46° |
| 2026-05-05 21:46 | 46.24305 | 6.11967 | 1363 ft | 6 kts | 38° |
| 2026-05-05 21:46 | 46.24336 | 6.12006 | 1363 ft | 8 kts | 44° |
| 2026-05-05 21:46 | 46.24380 | 6.12072 | 1367 ft | 11 kts | 47° |
| 2026-05-05 21:47 | 46.24442 | 6.12158 | 1371 ft | 14 kts | 45° |
| 2026-05-05 21:47 | 46.24522 | 6.12281 | 1372 ft | 20 kts | 46° |
| 2026-05-05 21:47 | 46.24637 | 6.12450 | 1367 ft | 26 kts | 46° |
| 2026-05-05 21:47 | 46.24745 | 6.12608 | 1362 ft | 20 kts | 46° |
| 2026-05-05 21:48 | 46.24852 | 6.12691 | 1364 ft | 18 kts | 17° |
| 2026-05-05 21:48 | 46.24952 | 6.12729 | 1368 ft | 11 kts | 354° |
| 2026-05-05 21:48 | 46.24992 | 6.12682 | 1371 ft | 13 kts | 295° |
| 2026-05-05 21:48 | 46.24979 | 6.12619 | 1370 ft | 1 kts | 227° |
| 2026-05-05 21:49 | 46.24955 | 6.12582 | 1372 ft | 12 kts | 226° |
| 2026-05-05 21:49 | 46.24742 | 6.12269 | 1372 ft | 79 kts | 226° |
| 2026-05-05 21:49 | 46.24210 | 6.11484 | 1373 ft | 136 kts | 225° |
| 2026-05-05 21:49 | 46.23444 | 6.10357 | 1452 ft | 172 kts | 225° |
| 2026-05-05 21:50 | 46.22637 | 6.09165 | 2162 ft | 164 kts | 226° |
| 2026-05-05 21:50 | 46.21826 | 6.07997 | 2772 ft | 170 kts | 225° |
| 2026-05-05 21:50 | 46.20949 | 6.06716 | 3072 ft | 190 kts | 225° |
| 2026-05-05 21:50 | 46.19967 | 6.05272 | 3313 ft | 214 kts | 224° |
| 2026-05-05 21:51 | 46.18861 | 6.03649 | 3645 ft | 239 kts | 224° |
| 2026-05-05 21:51 | 46.17662 | 6.01897 | 4383 ft | 249 kts | 225° |
| 2026-05-05 21:51 | 46.16438 | 6.00112 | 5309 ft | 251 kts | 224° |
| 2026-05-05 21:51 | 46.15219 | 5.98312 | 6263 ft | 252 kts | 225° |
| 2026-05-05 21:52 | 46.12468 | 5.95163 | 7770 ft | 263 kts | 193° |
| 2026-05-05 21:52 | 46.10624 | 5.95187 | 8529 ft | 270 kts | 174° |
| 2026-05-05 21:52 | 46.08758 | 5.95637 | 9325 ft | 274 kts | 172° |
| 2026-05-05 21:53 | 46.06874 | 5.96156 | 10102 ft | 277 kts | 172° |
| 2026-05-05 21:53 | 46.04914 | 5.96695 | 10437 ft | 298 kts | 172° |
| 2026-05-05 21:53 | 46.02793 | 5.97251 | 10623 ft | 321 kts | 172° |
| 2026-05-05 21:53 | 46.00521 | 5.97823 | 10864 ft | 340 kts | 172° |
| 2026-05-05 21:54 | 45.98169 | 5.98394 | 11490 ft | 345 kts | 172° |
| 2026-05-05 21:54 | 45.95772 | 5.98724 | 12165 ft | 348 kts | 181° |
| 2026-05-05 21:54 | 45.93340 | 5.98579 | 12866 ft | 352 kts | 184° |
| 2026-05-05 21:54 | 45.90874 | 5.98419 | 13572 ft | 357 kts | 184° |
| 2026-05-05 21:55 | 45.88383 | 5.98264 | 14211 ft | 360 kts | 184° |
| 2026-05-05 21:55 | 45.85865 | 5.98113 | 14860 ft | 363 kts | 184° |
| 2026-05-05 21:55 | 45.83329 | 5.97963 | 15514 ft | 366 kts | 184° |
| 2026-05-05 21:55 | 45.80778 | 5.97810 | 16148 ft | 369 kts | 184° |
| 2026-05-05 21:56 | 45.78207 | 5.97661 | 16784 ft | 371 kts | 183° |
| 2026-05-05 21:56 | 45.75614 | 5.97537 | 17411 ft | 374 kts | 183° |
| 2026-05-05 21:56 | 45.73008 | 5.97428 | 18013 ft | 377 kts | 183° |
| 2026-05-05 21:56 | 45.70376 | 5.97324 | 18559 ft | 379 kts | 183° |
| 2026-05-05 21:57 | 45.67736 | 5.97222 | 19066 ft | 381 kts | 183° |
| 2026-05-05 21:57 | 45.65072 | 5.97096 | 19587 ft | 384 kts | 183° |
| 2026-05-05 21:57 | 45.62395 | 5.96947 | 20103 ft | 386 kts | 184° |
| 2026-05-05 21:57 | 45.59706 | 5.96784 | 20620 ft | 388 kts | 184° |
| 2026-05-05 21:58 | 45.56996 | 5.96615 | 21143 ft | 391 kts | 184° |
| 2026-05-05 21:58 | 45.54268 | 5.96447 | 21651 ft | 394 kts | 184° |
| 2026-05-05 21:58 | 45.51520 | 5.96284 | 22149 ft | 396 kts | 183° |
| 2026-05-05 21:58 | 45.48758 | 5.96118 | 22646 ft | 399 kts | 185° |
| 2026-05-05 21:59 | 45.46007 | 5.95557 | 23093 ft | 401 kts | 193° |
| 2026-05-05 21:59 | 45.43272 | 5.94707 | 23550 ft | 404 kts | 193° |
| 2026-05-05 21:59 | 45.40525 | 5.93846 | 23985 ft | 405 kts | 193° |
| 2026-05-05 21:59 | 45.37769 | 5.92980 | 24449 ft | 406 kts | 193° |
| 2026-05-05 22:00 | 45.35011 | 5.92113 | 24896 ft | 406 kts | 194° |
| 2026-05-05 22:00 | 45.32250 | 5.91246 | 25364 ft | 407 kts | 194° |
| 2026-05-05 22:00 | 45.29486 | 5.90382 | 25834 ft | 407 kts | 194° |
| 2026-05-05 22:00 | 45.26714 | 5.89519 | 26285 ft | 408 kts | 194° |
| 2026-05-05 22:01 | 45.23941 | 5.88656 | 26723 ft | 408 kts | 194° |
| 2026-05-05 22:01 | 45.21166 | 5.87793 | 27190 ft | 408 kts | 194° |
| 2026-05-05 22:01 | 45.18398 | 5.86932 | 27648 ft | 407 kts | 195° |
| 2026-05-05 22:01 | 45.15628 | 5.86069 | 28080 ft | 408 kts | 195° |
| 2026-05-05 22:02 | 45.12861 | 5.85208 | 28515 ft | 408 kts | 195° |
| 2026-05-05 22:02 | 45.10085 | 5.84348 | 28981 ft | 407 kts | 195° |
| 2026-05-05 22:02 | 45.07335 | 5.83499 | 29561 ft | 403 kts | 195° |
| 2026-05-05 22:02 | 45.04604 | 5.82659 | 30141 ft | 399 kts | 195° |
| 2026-05-05 22:03 | 45.01904 | 5.81830 | 30636 ft | 395 kts | 196° |
| 2026-05-05 22:03 | 44.99227 | 5.81009 | 31103 ft | 393 kts | 196° |
| 2026-05-05 22:03 | 44.96549 | 5.80183 | 31489 ft | 394 kts | 196° |
| 2026-05-05 22:03 | 44.93872 | 5.79356 | 31829 ft | 394 kts | 197° |
| 2026-05-05 22:04 | 44.91188 | 5.78527 | 32163 ft | 395 kts | 197° |
| 2026-05-05 22:04 | 44.88462 | 5.77688 | 32488 ft | 397 kts | 197° |
| 2026-05-05 22:04 | 44.85797 | 5.76870 | 32828 ft | 397 kts | 197° |
| 2026-05-05 22:04 | 44.83065 | 5.76035 | 33234 ft | 395 kts | 197° |
| 2026-05-05 22:05 | 44.80382 | 5.75218 | 33686 ft | 394 kts | 197° |
| 2026-05-05 22:05 | 44.77706 | 5.74404 | 34046 ft | 393 kts | 197° |
| 2026-05-05 22:05 | 44.75065 | 5.73597 | 34298 ft | 394 kts | 197° |
| 2026-05-05 22:05 | 44.72379 | 5.72776 | 34527 ft | 396 kts | 197° |
| 2026-05-05 22:06 | 44.69646 | 5.71942 | 34763 ft | 398 kts | 197° |
| 2026-05-05 22:06 | 44.66971 | 5.71128 | 35001 ft | 399 kts | 197° |
| 2026-05-05 22:06 | 44.64245 | 5.70299 | 35168 ft | 403 kts | 196° |
| 2026-05-05 22:06 | 44.61495 | 5.69460 | 35341 ft | 406 kts | 196° |
| 2026-05-05 22:07 | 44.58723 | 5.68614 | 35513 ft | 408 kts | 196° |
| 2026-05-05 22:07 | 44.55943 | 5.67769 | 35750 ft | 410 kts | 196° |
| 2026-05-05 22:07 | 44.53155 | 5.66927 | 35977 ft | 411 kts | 195° |
| 2026-05-05 22:07 | 44.50357 | 5.66081 | 36171 ft | 412 kts | 195° |
| 2026-05-05 22:08 | 44.47548 | 5.65228 | 36359 ft | 414 kts | 195° |
| 2026-05-05 22:08 | 44.44732 | 5.64377 | 36544 ft | 415 kts | 195° |
| 2026-05-05 22:08 | 44.41903 | 5.63524 | 36766 ft | 416 kts | 195° |
| 2026-05-05 22:08 | 44.39071 | 5.62663 | 36924 ft | 417 kts | 197° |
| 2026-05-05 22:09 | 44.36322 | 5.61428 | 36972 ft | 414 kts | 204° |
| 2026-05-05 22:09 | 44.30955 | 5.58488 | 36968 ft | 414 kts | 204° |
| 2026-05-05 22:10 | 44.25589 | 5.55549 | 36968 ft | 413 kts | 204° |
| 2026-05-05 22:10 | 44.20245 | 5.52624 | 36963 ft | 412 kts | 204° |
| 2026-05-05 22:11 | 44.14905 | 5.49712 | 36965 ft | 412 kts | 204° |
| 2026-05-05 22:11 | 44.09560 | 5.46807 | 36962 ft | 412 kts | 204° |
| 2026-05-05 22:12 | 44.04220 | 5.43906 | 36979 ft | 411 kts | 204° |
| 2026-05-05 22:12 | 43.98889 | 5.41017 | 36978 ft | 411 kts | 204° |
| 2026-05-05 22:13 | 43.93565 | 5.38134 | 36960 ft | 411 kts | 204° |
| 2026-05-05 22:13 | 43.88252 | 5.35259 | 36948 ft | 409 kts | 205° |
| 2026-05-05 22:14 | 43.82956 | 5.32400 | 36969 ft | 408 kts | 204° |
| 2026-05-05 22:14 | 43.77676 | 5.29556 | 36954 ft | 407 kts | 204° |
| 2026-05-05 22:15 | 43.72401 | 5.26722 | 36949 ft | 407 kts | 204° |
| 2026-05-05 22:15 | 43.67135 | 5.23895 | 36932 ft | 405 kts | 205° |
| 2026-05-05 22:16 | 43.61886 | 5.21085 | 36939 ft | 404 kts | 205° |
| 2026-05-05 22:16 | 43.56648 | 5.18287 | 36940 ft | 403 kts | 205° |
| 2026-05-05 22:17 | 43.51422 | 5.15485 | 36928 ft | 403 kts | 205° |
| 2026-05-05 22:17 | 43.46202 | 5.12702 | 36939 ft | 402 kts | 205° |
| 2026-05-05 22:18 | 43.40995 | 5.09937 | 36938 ft | 401 kts | 205° |
| 2026-05-05 22:18 | 43.36173 | 5.06375 | 36938 ft | 395 kts | 217° |
| 2026-05-05 22:19 | 43.31645 | 5.02084 | 36906 ft | 395 kts | 216° |
| 2026-05-05 22:19 | 43.27123 | 4.97820 | 36930 ft | 394 kts | 216° |
| 2026-05-05 22:20 | 43.22571 | 4.93553 | 36934 ft | 394 kts | 216° |
| 2026-05-05 22:20 | 43.18060 | 4.89323 | 36901 ft | 397 kts | 216° |
| 2026-05-05 22:21 | 43.13484 | 4.85039 | 36898 ft | 399 kts | 216° |
| 2026-05-05 22:21 | 43.08892 | 4.80754 | 36903 ft | 399 kts | 216° |
| 2026-05-05 22:22 | 43.04227 | 4.76638 | 36920 ft | 400 kts | 212° |
| 2026-05-05 22:22 | 42.99359 | 4.72944 | 36926 ft | 400 kts | 212° |
| 2026-05-05 22:23 | 42.94499 | 4.69256 | 36931 ft | 400 kts | 212° |
| 2026-05-05 22:23 | 42.89641 | 4.65580 | 36927 ft | 398 kts | 212° |
| 2026-05-05 22:24 | 42.84805 | 4.61924 | 36947 ft | 397 kts | 212° |
| 2026-05-05 22:24 | 42.79979 | 4.58279 | 36944 ft | 396 kts | 212° |
| 2026-05-05 22:25 | 42.75150 | 4.54649 | 36941 ft | 398 kts | 212° |
| 2026-05-05 22:25 | 42.70266 | 4.50985 | 36932 ft | 399 kts | 212° |
| 2026-05-05 22:26 | 42.65406 | 4.47341 | 36928 ft | 399 kts | 212° |
| 2026-05-05 22:26 | 42.60539 | 4.43699 | 36929 ft | 400 kts | 212° |
| 2026-05-05 22:27 | 42.55702 | 4.40085 | 36933 ft | 400 kts | 212° |
| 2026-05-05 22:27 | 42.50831 | 4.36451 | 36911 ft | 399 kts | 212° |
| 2026-05-05 22:28 | 42.45972 | 4.32825 | 36925 ft | 399 kts | 212° |
| 2026-05-05 22:28 | 42.41108 | 4.29212 | 36934 ft | 398 kts | 212° |
| 2026-05-05 22:29 | 42.36250 | 4.25607 | 36941 ft | 398 kts | 212° |
| 2026-05-05 22:29 | 42.31390 | 4.22007 | 36913 ft | 398 kts | 212° |
| 2026-05-05 22:30 | 42.26534 | 4.18418 | 36954 ft | 398 kts | 213° |
| 2026-05-05 22:30 | 42.22462 | 4.15419 | 36951 ft | 398 kts | 213° |
| 2026-05-05 22:31 | 42.17604 | 4.11846 | 36944 ft | 398 kts | 212° |
| 2026-05-05 22:31 | 42.12745 | 4.08271 | 36934 ft | 398 kts | 213° |
| 2026-05-05 22:32 | 42.07887 | 4.04700 | 36920 ft | 398 kts | 213° |
| 2026-05-05 22:32 | 42.03019 | 4.01137 | 36920 ft | 399 kts | 212° |
| 2026-05-05 22:33 | 41.98146 | 3.97572 | 36926 ft | 399 kts | 213° |
| 2026-05-05 22:33 | 41.93271 | 3.94010 | 36933 ft | 399 kts | 213° |
| 2026-05-05 22:34 | 41.88354 | 3.90541 | 36896 ft | 400 kts | 211° |
| 2026-05-05 22:34 | 41.83360 | 3.87231 | 36902 ft | 401 kts | 210° |
| 2026-05-05 22:35 | 41.78355 | 3.83926 | 36910 ft | 401 kts | 211° |
| 2026-05-05 22:35 | 41.73361 | 3.80591 | 36939 ft | 401 kts | 211° |
| 2026-05-05 22:36 | 41.68366 | 3.77244 | 36930 ft | 402 kts | 211° |
| 2026-05-05 22:36 | 41.63362 | 3.73893 | 36929 ft | 403 kts | 211° |
| 2026-05-05 22:37 | 41.58349 | 3.70540 | 36936 ft | 403 kts | 211° |
| 2026-05-05 22:37 | 41.53327 | 3.67200 | 36935 ft | 403 kts | 211° |
| 2026-05-05 22:38 | 41.48306 | 3.63864 | 36893 ft | 403 kts | 211° |
| 2026-05-05 22:38 | 41.43277 | 3.60536 | 36908 ft | 404 kts | 211° |
| 2026-05-05 22:39 | 41.38246 | 3.57204 | 36921 ft | 404 kts | 211° |
| 2026-05-05 22:39 | 41.33214 | 3.53877 | 36927 ft | 404 kts | 211° |
| 2026-05-05 22:40 | 41.28143 | 3.50531 | 36913 ft | 404 kts | 211° |
| 2026-05-05 22:40 | 41.23110 | 3.47227 | 36931 ft | 403 kts | 211° |
| 2026-05-05 22:41 | 41.17994 | 3.44145 | 36935 ft | 408 kts | 202° |
| 2026-05-05 22:41 | 41.12404 | 3.42536 | 36937 ft | 412 kts | 197° |
| 2026-05-05 22:42 | 41.06780 | 3.41059 | 36906 ft | 412 kts | 197° |
| 2026-05-05 22:42 | 41.01210 | 3.39589 | 36938 ft | 410 kts | 197° |
| 2026-05-05 22:43 | 40.95582 | 3.38101 | 36945 ft | 409 kts | 197° |
| 2026-05-05 22:43 | 40.90000 | 3.36635 | 36950 ft | 409 kts | 197° |
| 2026-05-05 22:44 | 40.84426 | 3.35173 | 36928 ft | 408 kts | 197° |
| 2026-05-05 22:44 | 40.78892 | 3.33730 | 36933 ft | 408 kts | 197° |
| 2026-05-05 22:45 | 40.73282 | 3.32258 | 36936 ft | 408 kts | 197° |
| 2026-05-05 22:45 | 40.67709 | 3.30806 | 36944 ft | 408 kts | 197° |
| 2026-05-05 22:46 | 40.62134 | 3.29356 | 36940 ft | 408 kts | 197° |
| 2026-05-05 22:46 | 40.56560 | 3.27914 | 36940 ft | 408 kts | 197° |
| 2026-05-05 22:47 | 40.50986 | 3.26457 | 36944 ft | 408 kts | 197° |
| 2026-05-05 22:47 | 40.45414 | 3.25006 | 36950 ft | 408 kts | 197° |
| 2026-05-05 22:48 | 40.39840 | 3.23559 | 36922 ft | 408 kts | 198° |
| 2026-05-05 22:48 | 40.34263 | 3.22116 | 36938 ft | 408 kts | 197° |
| 2026-05-05 22:49 | 40.28689 | 3.20691 | 36949 ft | 408 kts | 197° |
| 2026-05-05 22:49 | 40.23112 | 3.19254 | 36959 ft | 408 kts | 197° |
| 2026-05-05 22:50 | 40.17533 | 3.17815 | 36926 ft | 409 kts | 198° |
| 2026-05-05 22:50 | 40.11954 | 3.16375 | 36944 ft | 409 kts | 198° |
| 2026-05-05 22:51 | 40.06367 | 3.14947 | 36956 ft | 409 kts | 197° |
| 2026-05-05 22:51 | 40.00778 | 3.13525 | 36962 ft | 409 kts | 197° |
| 2026-05-05 22:52 | 39.95195 | 3.12086 | 36945 ft | 409 kts | 198° |
| 2026-05-05 22:52 | 39.90025 | 3.09502 | 36952 ft | 397 kts | 214° |
| 2026-05-05 22:53 | 39.85214 | 3.05978 | 36955 ft | 397 kts | 214° |
| 2026-05-05 22:53 | 39.80362 | 3.02439 | 36988 ft | 398 kts | 214° |
| 2026-05-05 22:54 | 39.75535 | 2.98936 | 36944 ft | 397 kts | 214° |
| 2026-05-05 22:54 | 39.70705 | 2.95432 | 36946 ft | 398 kts | 214° |
| 2026-05-05 22:55 | 39.65874 | 2.91931 | 36952 ft | 398 kts | 214° |
| 2026-05-05 22:55 | 39.61061 | 2.88460 | 36957 ft | 399 kts | 214° |
| 2026-05-05 22:56 | 39.56211 | 2.84964 | 36972 ft | 399 kts | 214° |
| 2026-05-05 22:56 | 39.51352 | 2.81468 | 36955 ft | 400 kts | 214° |
| 2026-05-05 22:56 | 39.48921 | 2.79721 | 36730 ft | 400 kts | 214° |
| 2026-05-05 22:57 | 39.46494 | 2.77977 | 36464 ft | 398 kts | 214° |
| 2026-05-05 22:57 | 39.44213 | 2.75983 | 35589 ft | 394 kts | 226° |
| 2026-05-05 22:57 | 39.42502 | 2.73245 | 34548 ft | 381 kts | 242° |
| 2026-05-05 22:57 | 39.41301 | 2.70246 | 33546 ft | 371 kts | 243° |
| 2026-05-05 22:58 | 39.40141 | 2.67303 | 32285 ft | 365 kts | 243° |
| 2026-05-05 22:58 | 39.38972 | 2.64351 | 30639 ft | 371 kts | 243° |
| 2026-05-05 22:58 | 39.37784 | 2.61368 | 28877 ft | 376 kts | 243° |
| 2026-05-05 22:58 | 39.36581 | 2.58356 | 27082 ft | 378 kts | 243° |
| 2026-05-05 22:59 | 39.35371 | 2.55329 | 25411 ft | 380 kts | 243° |
| 2026-05-05 22:59 | 39.34158 | 2.52297 | 23821 ft | 380 kts | 243° |
| 2026-05-05 22:59 | 39.32948 | 2.49276 | 22138 ft | 377 kts | 243° |
| 2026-05-05 22:59 | 39.31751 | 2.46291 | 20569 ft | 371 kts | 243° |
| 2026-05-05 23:00 | 39.29413 | 2.40475 | 17713 ft | 358 kts | 243° |
| 2026-05-05 23:00 | 39.28278 | 2.37646 | 16235 ft | 352 kts | 243° |
| 2026-05-05 23:00 | 39.27160 | 2.34863 | 14829 ft | 347 kts | 242° |
| 2026-05-05 23:01 | 39.26055 | 2.32115 | 13464 ft | 343 kts | 242° |
| 2026-05-05 23:01 | 39.24958 | 2.29398 | 12097 ft | 342 kts | 242° |
| 2026-05-05 23:01 | 39.23852 | 2.26660 | 11444 ft | 348 kts | 243° |
| 2026-05-05 23:01 | 39.22734 | 2.23897 | 11147 ft | 348 kts | 243° |
| 2026-05-05 23:02 | 39.21616 | 2.21130 | 10896 ft | 348 kts | 243° |
| 2026-05-05 23:02 | 39.20498 | 2.18367 | 10653 ft | 347 kts | 243° |
| 2026-05-05 23:02 | 39.19381 | 2.15607 | 10418 ft | 345 kts | 243° |
| 2026-05-05 23:02 | 39.18290 | 2.12917 | 10172 ft | 332 kts | 243° |
| 2026-05-05 23:03 | 39.17263 | 2.10389 | 9918 ft | 303 kts | 243° |
| 2026-05-05 23:03 | 39.16332 | 2.08104 | 9792 ft | 277 kts | 243° |
| 2026-05-05 23:03 | 39.15446 | 2.05928 | 9654 ft | 271 kts | 243° |
| 2026-05-05 23:03 | 39.14572 | 2.03781 | 9531 ft | 270 kts | 243° |
| 2026-05-05 23:04 | 39.13701 | 2.01644 | 9406 ft | 269 kts | 243° |
| 2026-05-05 23:04 | 39.12831 | 1.99509 | 9262 ft | 269 kts | 243° |
| 2026-05-05 23:04 | 39.11965 | 1.97376 | 9135 ft | 269 kts | 243° |
| 2026-05-05 23:04 | 39.11099 | 1.95245 | 9002 ft | 269 kts | 243° |
| 2026-05-05 23:05 | 39.10230 | 1.93114 | 8860 ft | 270 kts | 243° |
| 2026-05-05 23:05 | 39.09351 | 1.90965 | 8743 ft | 272 kts | 243° |
| 2026-05-05 23:05 | 39.08470 | 1.88812 | 8480 ft | 273 kts | 243° |
| 2026-05-05 23:05 | 39.07583 | 1.86642 | 7966 ft | 275 kts | 243° |
| 2026-05-05 23:06 | 39.06691 | 1.84457 | 7549 ft | 274 kts | 243° |
| 2026-05-05 23:06 | 39.05799 | 1.82272 | 6987 ft | 279 kts | 243° |
| 2026-05-05 23:06 | 39.04904 | 1.80088 | 6628 ft | 272 kts | 244° |
| 2026-05-05 23:06 | 39.04026 | 1.77948 | 5854 ft | 271 kts | 242° |
| 2026-05-05 23:07 | 39.03138 | 1.75786 | 5396 ft | 272 kts | 243° |
| 2026-05-05 23:07 | 39.02253 | 1.73657 | 5006 ft | 270 kts | 242° |
| 2026-05-05 23:07 | 39.01363 | 1.71532 | 4547 ft | 268 kts | 242° |
| 2026-05-05 23:07 | 39.00800 | 1.70163 | 4339 ft | 254 kts | 242° |
| 2026-05-05 23:08 | 39.00017 | 1.68247 | 4219 ft | 233 kts | 242° |
| 2026-05-05 23:08 | 38.99278 | 1.66441 | 4094 ft | 224 kts | 242° |
| 2026-05-05 23:08 | 38.98571 | 1.64716 | 4020 ft | 211 kts | 242° |
| 2026-05-05 23:08 | 38.97906 | 1.63096 | 3912 ft | 200 kts | 242° |
| 2026-05-05 23:09 | 38.97270 | 1.61546 | 3825 ft | 195 kts | 241° |
| 2026-05-05 23:09 | 38.96654 | 1.60046 | 3644 ft | 184 kts | 242° |
| 2026-05-05 23:09 | 38.96070 | 1.58623 | 3405 ft | 176 kts | 241° |
| 2026-05-05 23:09 | 38.95511 | 1.57263 | 3183 ft | 169 kts | 241° |
| 2026-05-05 23:10 | 38.94973 | 1.55954 | 2962 ft | 163 kts | 241° |
| 2026-05-05 23:10 | 38.94450 | 1.54683 | 2750 ft | 159 kts | 242° |
| 2026-05-05 23:10 | 38.93945 | 1.53457 | 2562 ft | 150 kts | 242° |
| 2026-05-05 23:10 | 38.93459 | 1.52277 | 2359 ft | 146 kts | 241° |
| 2026-05-05 23:11 | 38.93002 | 1.51165 | 2155 ft | 138 kts | 242° |
| 2026-05-05 23:11 | 38.92560 | 1.50092 | 1982 ft | 135 kts | 242° |
| 2026-05-05 23:11 | 38.92123 | 1.49032 | 1801 ft | 134 kts | 242° |
| 2026-05-05 23:11 | 38.91689 | 1.47979 | 1627 ft | 135 kts | 242° |
| 2026-05-05 23:12 | 38.91250 | 1.46916 | 1444 ft | 134 kts | 242° |
| 2026-05-05 23:12 | 38.90818 | 1.45858 | 1259 ft | 133 kts | 242° |
| 2026-05-05 23:12 | 38.90389 | 1.44800 | 1074 ft | 133 kts | 242° |
| 2026-05-05 23:12 | 38.89947 | 1.43751 | 927 ft | 134 kts | 241° |
| 2026-05-05 23:13 | 38.89486 | 1.42697 | 745 ft | 136 kts | 243° |
| 2026-05-05 23:13 | 38.89055 | 1.41604 | 567 ft | 138 kts | 244° |
| 2026-05-05 23:13 | 38.88601 | 1.40504 | 381 ft | 141 kts | 243° |
| 2026-05-05 23:13 | 38.88130 | 1.39386 | 196 ft | 144 kts | 245° |
| 2026-05-05 23:14 | 38.87668 | 1.38245 | 28 ft | 142 kts | 244° |
| 2026-05-05 23:14 | 38.87262 | 1.37255 | 12 ft | 97 kts | 242° |
| 2026-05-05 23:14 | 38.87104 | 1.36825 | 10 ft | 18 kts | 278° |
| 2026-05-05 23:14 | 38.87102 | 1.36715 | 8 ft | 8 kts | 268° |
| 2026-05-05 23:15 | 38.87103 | 1.36646 | 8 ft | 8 kts | 272° |
| 2026-05-05 23:15 | 38.87108 | 1.36581 | 8 ft | 7 kts | 288° |
| 2026-05-05 23:15 | 38.87142 | 1.36558 | 8 ft | 6 kts | 4° |
| 2026-05-05 23:15 | 38.87181 | 1.36608 | 9 ft | 14 kts | 61° |
| 2026-05-05 23:16 | 38.87227 | 1.36731 | 9 ft | 15 kts | 65° |
| 2026-05-05 23:16 | 38.87269 | 1.36832 | 9 ft | 8 kts | 62° |
| 2026-05-05 23:16 | 38.87308 | 1.36855 | 9 ft | 7 kts | 346° |
| 2026-05-05 23:16 | 38.87353 | 1.36829 | 9 ft | 8 kts | 334° |
| 2026-05-05 23:17 | 38.87405 | 1.36797 | 9 ft | 8 kts | 334° |
| 2026-05-05 23:17 | 38.87448 | 1.36780 | 9 ft | 6 kts | 352° |
| 2026-05-05 23:17 | 38.87489 | 1.36789 | 9 ft | 3 kts | 16° |
| 2026-05-05 23:17 | 38.87503 | 1.36795 | 9 ft | 0 kts | 16° |